Time;durP1;ratioP1;P1;durP2;ratioP2;P2;SDS_P1;SDS_P2;PMS_P1;PMS_P2;Temp;Humidity;BMP_temperature;BMP_pressure;BME280_temperature;BME280_humidity;BME280_pressure;Samples;Min_cycle;Max_cycle;Signal;HPM_P1;HPM_P2
2021/05/25 00:02:16;;;;;;;2.25;1.10;;;;;;;15.41;61.66;97939.86;1729946;82;21010;-64
2021/05/25 00:04:42;;;;;;;2.92;1.20;;;;;;;15.43;61.06;97931.36;1752940;80;21532;-66
2021/05/25 00:07:11;;;;;;;2.02;1.12;;;;;;;15.38;61.68;97934.98;1753105;81;21007;-66
2021/05/25 00:09:38;;;;;;;1.77;1.20;;;;;;;15.36;62.09;97929.13;1752956;82;21070;-66
2021/05/25 00:12:06;;;;;;;2.45;1.30;;;;;;;15.34;62.23;97928.95;1752985;81;21074;-67
2021/05/25 00:14:33;;;;;;;3.08;1.72;;;;;;;15.33;62.27;97932.58;1753036;81;21042;-66
2021/05/25 00:17:00;;;;;;;1.85;1.00;;;;;;;15.26;62.70;97925.90;1753042;80;21067;-66
2021/05/25 00:19:27;;;;;;;1.60;1.10;;;;;;;15.23;62.91;97921.02;1753005;80;21031;-66
2021/05/25 00:21:53;;;;;;;3.12;2.45;;;;;;;15.21;62.98;97917.77;1752214;80;21070;-66
2021/05/25 00:24:20;;;;;;;1.62;1.32;;;;;;;15.19;63.13;97920.55;1720919;82;21055;-66
2021/05/25 00:26:47;;;;;;;2.15;1.32;;;;;;;15.20;63.00;97916.95;1741986;82;21583;-66
2021/05/25 00:29:14;;;;;;;5.15;1.75;;;;;;;15.09;63.91;97917.84;1742123;82;21189;-66
2021/05/25 00:31:41;;;;;;;2.72;1.35;;;;;;;15.04;64.37;97913.12;1742088;82;21550;-66
2021/05/25 00:34:08;;;;;;;6.15;1.55;;;;;;;15.02;64.74;97902.00;1742147;82;21000;-66
2021/05/25 00:36:37;;;;;;;2.65;1.42;;;;;;;14.96;65.15;97900.09;1741919;82;21594;-66
2021/05/25 00:39:06;;;;;;;3.05;1.92;;;;;;;14.93;65.42;97893.08;1742075;82;21103;-65
2021/05/25 00:41:35;;;;;;;1.98;1.20;;;;;;;14.89;65.78;97898.33;1742132;82;21114;-66
2021/05/25 00:44:09;;;;;;;2.17;1.67;;;;;;;14.92;65.57;97905.83;1742062;82;21035;-66
2021/05/25 00:46:38;;;;;;;2.62;1.30;;;;;;;14.86;66.23;97907.83;1742249;82;21097;-66
2021/05/25 00:49:06;;;;;;;3.42;1.30;;;;;;;14.90;65.72;97903.89;1741934;82;21114;-65
2021/05/25 00:51:34;;;;;;;2.40;1.30;;;;;;;14.78;66.16;97888.25;1742019;82;21016;-65
2021/05/25 00:54:03;;;;;;;4.40;1.30;;;;;;;14.93;64.87;97905.66;1742106;82;21059;-66
2021/05/25 00:56:30;;;;;;;2.05;1.40;;;;;;;14.89;66.61;97899.64;1741866;82;21094;-66
2021/05/25 00:58:57;;;;;;;5.22;1.40;;;;;;;14.93;66.33;97882.13;1742094;82;21043;-66
2021/05/25 01:01:25;;;;;;;1.45;0.90;;;;;;;14.93;66.52;97873.47;1742106;82;21055;-66
2021/05/25 01:03:54;;;;;;;2.08;0.98;;;;;;;14.98;66.42;97865.41;1742144;82;21705;-64
2021/05/25 01:06:22;;;;;;;1.40;1.00;;;;;;;15.03;66.23;97870.12;1742274;82;21026;-64
2021/05/25 01:08:49;;;;;;;2.30;1.52;;;;;;;15.06;66.35;97869.78;1742334;82;21022;-64
2021/05/25 01:11:18;;;;;;;5.17;1.07;;;;;;;15.10;66.36;97876.30;1741947;82;21123;-66
2021/05/25 01:13:54;;;;;;;4.62;1.12;;;;;;;15.13;66.07;97883.33;1721275;82;21543;-66
2021/05/25 01:16:18;;;;;;;2.65;1.12;;;;;;;15.14;66.40;97871.85;1740455;82;21110;-64
2021/05/25 01:18:45;;;;;;;1.15;0.60;;;;;;;15.11;66.39;97866.16;1742082;82;21168;-64
2021/05/25 01:21:13;;;;;;;2.60;0.80;;;;;;;15.13;66.21;97874.17;1742102;82;21093;-65
2021/05/25 01:23:41;;;;;;;2.47;1.00;;;;;;;15.16;66.10;97890.00;1749211;80;21049;-64
2021/05/25 01:26:08;;;;;;;1.98;0.93;;;;;;;15.21;65.98;97879.84;1752972;82;21035;-64
2021/05/25 01:28:37;;;;;;;3.87;1.22;;;;;;;15.16;66.32;97871.69;1753011;80;21019;-64
2021/05/25 01:31:05;;;;;;;1.52;1.07;;;;;;;15.17;66.46;97871.50;1753175;82;21066;-65
2021/05/25 01:33:37;;;;;;;1.47;0.85;;;;;;;15.14;66.63;97871.85;1753177;82;21006;-64
2021/05/25 01:36:07;;;;;;;0.93;0.70;;;;;;;15.14;66.73;97877.58;1753364;80;21086;-66
2021/05/25 01:38:37;;;;;;;1.70;1.15;;;;;;;15.15;66.58;97878.72;1753796;80;21034;-64
2021/05/25 01:41:08;;;;;;;1.32;0.82;;;;;;;15.10;67.12;97895.42;1753085;82;21074;-63
2021/05/25 01:43:37;;;;;;;1.30;1.20;;;;;;;15.13;67.01;97905.56;1752619;80;21571;-62
2021/05/25 01:46:05;;;;;;;1.25;0.82;;;;;;;15.21;66.53;97900.77;1752649;80;20998;-64
2021/05/25 01:48:32;;;;;;;1.92;0.90;;;;;;;15.20;66.74;97875.59;1752394;81;21613;-66
2021/05/25 01:50:59;;;;;;;7.37;1.30;;;;;;;15.17;66.95;97862.87;1752679;81;21102;-64
2021/05/25 01:53:29;;;;;;;2.05;0.75;;;;;;;15.21;66.83;97866.77;1752947;81;21007;-65
2021/05/25 01:55:59;;;;;;;2.08;1.20;;;;;;;15.23;66.67;97862.64;1752820;81;21034;-63
2021/05/25 01:58:32;;;;;;;3.20;0.93;;;;;;;15.29;66.40;97867.98;1752733;80;21106;-65
2021/05/25 02:01:06;;;;;;;2.25;0.88;;;;;;;15.35;66.02;97859.95;1753028;80;21110;-65
2021/05/25 02:03:34;;;;;;;1.07;0.57;;;;;;;15.39;65.70;97867.28;1752904;80;21047;-65
2021/05/25 02:06:01;;;;;;;1.95;1.07;;;;;;;15.41;65.53;97866.59;1753035;80;21125;-64
2021/05/25 02:08:28;;;;;;;1.50;0.75;;;;;;;15.45;65.21;97866.56;1752747;80;21094;-64
2021/05/25 02:10:57;;;;;;;4.35;1.27;;;;;;;15.50;64.92;97859.04;1752933;80;21078;-66
2021/05/25 02:13:31;;;;;;;1.27;0.60;;;;;;;15.56;64.53;97857.53;1752609;82;21044;-66
2021/05/25 02:16:02;;;;;;;0.98;0.80;;;;;;;15.61;64.38;97874.32;1752923;80;21039;-65
2021/05/25 02:18:33;;;;;;;3.02;0.60;;;;;;;15.66;64.01;97882.96;1752994;80;21043;-65
2021/05/25 02:21:04;;;;;;;2.95;1.12;;;;;;;15.68;64.46;97910.28;1753167;80;21019;-64
2021/05/25 02:23:32;;;;;;;2.40;0.80;;;;;;;15.56;66.17;97925.59;1753435;80;21054;-69
2021/05/25 02:25:59;;;;;;;1.82;0.90;;;;;;;15.44;66.43;97893.75;1753224;82;21014;-65
2021/05/25 02:28:27;;;;;;;2.02;1.05;;;;;;;15.44;66.22;97885.89;1753239;81;21039;-65
2021/05/25 02:30:55;;;;;;;2.27;0.90;;;;;;;15.42;66.46;97885.23;1752989;80;21042;-65
2021/05/25 02:33:24;;;;;;;2.42;0.82;;;;;;;15.37;66.82;97874.99;1753369;82;21161;-64
2021/05/25 02:35:56;;;;;;;2.30;0.72;;;;;;;15.32;67.17;97878.12;1752997;82;21030;-64
2021/05/25 02:38:24;;;;;;;6.45;0.90;;;;;;;15.31;67.06;97879.11;1753284;80;21094;-63
2021/05/25 02:40:51;;;;;;;3.67;0.80;;;;;;;15.33;66.93;97877.11;1752956;82;21597;-64
2021/05/25 02:43:22;;;;;;;1.90;0.60;;;;;;;15.34;66.38;97886.60;1753023;80;21026;-64
2021/05/25 02:45:51;;;;;;;1.55;1.30;;;;;;;15.37;65.92;97880.23;1753019;81;21083;-65
2021/05/25 02:48:20;;;;;;;5.05;1.35;;;;;;;15.35;66.86;97867.80;1752882;81;21626;-63
2021/05/25 02:50:49;;;;;;;1.67;0.90;;;;;;;15.31;67.33;97852.95;1753114;82;20998;-63
2021/05/25 02:53:16;;;;;;;1.35;1.00;;;;;;;15.33;66.90;97839.70;1753094;82;21157;-63
2021/05/25 02:55:43;;;;;;;2.52;1.05;;;;;;;15.31;67.09;97831.20;1752995;81;21125;-62
2021/05/25 02:58:11;;;;;;;0.72;0.70;;;;;;;15.34;66.47;97815.14;1753018;80;21593;-63
2021/05/25 03:00:45;;;;;;;1.60;1.20;;;;;;;15.21;67.89;97815.23;1752452;80;21062;-63
2021/05/25 03:03:13;;;;;;;2.27;0.93;;;;;;;15.14;68.50;97816.92;1752461;80;21007;-63
2021/05/25 03:05:42;;;;;;;4.37;1.05;;;;;;;15.15;68.42;97798.95;1752882;82;21042;-63
2021/05/25 03:08:12;;;;;;;3.17;0.85;;;;;;;15.15;68.55;97808.09;1753134;82;21114;-63
2021/05/25 03:10:44;;;;;;;2.70;0.72;;;;;;;15.19;67.96;97799.41;1753161;82;21608;-63
2021/05/25 03:13:12;;;;;;;0.80;0.70;;;;;;;15.20;67.65;97777.01;1752014;82;21063;-63
2021/05/25 03:15:43;;;;;;;1.77;1.10;;;;;;;15.23;67.38;97756.21;1752941;82;21031;-63
2021/05/25 03:18:12;;;;;;;2.87;1.07;;;;;;;15.21;67.90;97754.28;1753236;80;21049;-63
2021/05/25 03:20:44;;;;;;;1.57;1.10;;;;;;;15.22;67.90;97782.05;1753257;82;21069;-63
2021/05/25 03:23:11;;;;;;;2.33;1.55;;;;;;;15.21;68.00;97810.00;1750506;82;21522;-63
2021/05/25 03:25:39;;;;;;;2.00;1.02;;;;;;;15.28;67.11;97772.69;1742233;82;21194;-63
2021/05/25 03:28:06;;;;;;;6.53;1.67;;;;;;;15.30;67.64;97789.83;1742190;82;21074;-64
2021/05/25 03:30:33;;;;;;;2.52;1.37;;;;;;;15.34;67.63;97789.80;1742117;82;21609;-65
2021/05/25 03:33:00;;;;;;;1.98;1.27;;;;;;;15.36;67.59;97807.95;1742349;82;21170;-67
2021/05/25 03:35:27;;;;;;;3.05;1.80;;;;;;;15.41;67.14;97798.56;1742174;82;21016;-65
2021/05/25 03:37:55;;;;;;;2.45;1.62;;;;;;;15.45;66.74;97791.16;1742183;82;21054;-65
2021/05/25 03:40:22;;;;;;;3.60;1.60;;;;;;;15.49;66.35;97765.81;1742269;82;21118;-65
2021/05/25 03:42:52;;;;;;;1.57;1.00;;;;;;;15.54;66.30;97760.05;1742233;82;21046;-65
2021/05/25 03:45:20;;;;;;;1.82;1.05;;;;;;;15.58;66.03;97765.24;1742188;82;21578;-65
2021/05/25 03:47:48;;;;;;;1.62;0.70;;;;;;;15.60;65.96;97769.81;1742080;82;21154;-67
2021/05/25 03:50:17;;;;;;;2.47;0.70;;;;;;;15.68;65.46;97799.81;1742262;82;21087;-67
2021/05/25 03:52:51;;;;;;;1.22;0.88;;;;;;;15.74;65.42;97810.08;1742259;82;21042;-66
2021/05/25 04:00:42;;;;;;;0.90;0.70;;;;;;;15.87;64.94;97782.79;1742991;82;21143;-66
2021/05/25 04:03:09;;;;;;;10.58;1.22;;;;;;;15.89;64.97;97778.17;1742571;82;21043;-64
2021/05/25 04:05:36;;;;;;;1.10;1.00;;;;;;;15.88;64.99;97766.88;1742107;82;21137;-64
2021/05/25 04:08:04;;;;;;;1.05;0.70;;;;;;;15.88;65.31;97772.61;1742260;82;21645;-65
2021/05/25 04:10:30;;;;;;;3.00;1.17;;;;;;;15.87;65.26;97771.01;1742161;82;21126;-64
2021/05/25 04:12:58;;;;;;;1.42;0.65;;;;;;;15.87;65.47;97764.46;1742070;82;21134;-65
2021/05/25 04:15:25;;;;;;;2.52;0.98;;;;;;;15.80;65.69;97768.27;1745526;81;21539;-65
2021/05/25 04:17:53;;;;;;;2.27;1.50;;;;;;;15.77;65.89;97758.17;1706571;84;21057;-64
2021/05/25 04:20:22;;;;;;;1.12;0.80;;;;;;;15.79;65.90;97771.91;1709860;84;21147;-67
2021/05/25 04:22:50;;;;;;;3.65;1.07;;;;;;;15.76;66.02;97767.01;1706702;84;21073;-65
2021/05/25 04:25:17;;;;;;;3.65;0.82;;;;;;;15.72;66.31;97753.95;1783088;80;21171;-64
2021/05/25 04:27:44;;;;;;;1.52;0.85;;;;;;;15.71;66.36;97751.54;1719318;82;21087;-63
2021/05/25 04:30:13;;;;;;;1.85;0.72;;;;;;;15.73;66.24;97752.16;1783658;80;21151;-63
2021/05/25 04:32:40;;;;;;;0.95;0.80;;;;;;;15.69;66.47;97746.47;1783873;80;21075;-62
2021/05/25 04:37:58;;;;;;;0.88;0.80;;;;;;;15.75;66.55;97758.86;1609584;88;21148;-65
2021/05/25 04:40:26;;;;;;;0.90;0.80;;;;;;;15.82;66.55;97753.70;1663264;84;21457;-64
2021/05/25 04:42:54;;;;;;;1.22;0.80;;;;;;;15.81;66.58;97738.48;1663416;86;21621;-65
2021/05/25 04:45:21;;;;;;;1.52;1.37;;;;;;;15.87;66.23;97753.49;1663462;86;21067;-65
2021/05/25 04:47:48;;;;;;;2.27;0.90;;;;;;;15.91;66.08;97753.42;1663568;86;21095;-64
2021/05/25 04:50:18;;;;;;;1.55;0.95;;;;;;;15.96;65.90;97752.39;1663474;85;21111;-64
2021/05/25 04:52:45;;;;;;;2.90;2.40;;;;;;;15.96;65.91;97745.84;1663555;84;21597;-64
2021/05/25 04:55:35;;;;;;;3.92;1.37;;;;;;;16.04;65.62;97755.41;1676174;85;21561;-66
2021/05/25 04:58:04;;;;;;;3.42;1.20;;;;;;;16.08;65.63;97755.36;1661070;86;21100;-65
2021/05/25 05:00:31;;;;;;;2.50;1.50;;;;;;;16.07;65.70;97753.23;1656457;86;21474;-65
2021/05/25 05:02:58;;;;;;;0.93;0.85;;;;;;;16.18;65.32;97763.77;1645465;87;21758;-64
2021/05/25 05:05:25;;;;;;;2.40;1.05;;;;;;;16.26;64.93;97763.67;1645358;87;21215;-64
2021/05/25 05:07:53;;;;;;;1.47;1.00;;;;;;;16.26;65.07;97770.22;1645313;87;21139;-64
2021/05/25 05:10:21;;;;;;;1.82;1.40;;;;;;;16.35;64.84;97771.72;1645467;86;21092;-64
2021/05/25 05:12:48;;;;;;;2.65;1.27;;;;;;;16.48;64.55;97764.02;1645679;86;21307;-68
2021/05/25 05:15:17;;;;;;;1.22;1.12;;;;;;;16.60;64.62;97763.08;1645548;86;21052;-65
2021/05/25 05:17:45;;;;;;;5.65;2.92;;;;;;;16.69;64.84;97762.47;1645563;87;21617;-63
2021/05/25 05:20:15;;;;;;;5.15;2.15;;;;;;;16.76;64.00;97762.85;1645358;87;21084;-64
2021/05/25 05:22:42;;;;;;;1.98;1.10;;;;;;;16.77;63.87;97753.17;1645491;87;21200;-65
2021/05/25 05:25:11;;;;;;;5.47;1.47;;;;;;;16.72;63.86;97742.42;1645518;87;21056;-65
2021/05/25 05:27:39;;;;;;;4.28;2.10;;;;;;;16.73;63.81;97738.28;1645359;87;21092;-62
2021/05/25 05:40:03;;;;;;;4.87;1.30;;;;;;;17.05;63.37;97756.66;1673563;86;21123;-62
2021/05/25 05:42:50;;;;;;;1.07;0.90;;;;;;;17.24;62.79;97752.07;1673498;86;21148;-62
2021/05/25 05:45:20;;;;;;;2.55;1.37;;;;;;;17.18;62.67;97746.78;1672777;84;21708;-63
2021/05/25 05:47:47;;;;;;;1.65;1.02;;;;;;;17.20;62.38;97748.73;1673020;83;21666;-61
2021/05/25 05:50:14;;;;;;;2.85;2.08;;;;;;;17.28;62.34;97750.69;1672951;84;21067;-61
2021/05/25 05:52:41;;;;;;;1.67;1.10;;;;;;;17.44;62.44;97760.10;1676905;84;21086;-67
2021/05/25 05:55:11;;;;;;;4.40;1.20;;;;;;;17.49;61.92;97728.84;1685418;82;21052;-66
2021/05/25 05:57:38;;;;;;;1.30;0.80;;;;;;;17.41;62.03;97720.62;1689005;84;21082;-68
2021/05/25 06:00:09;;;;;;;1.45;1.35;;;;;;;17.43;62.09;97725.16;1685072;84;21071;-66
2021/05/25 06:02:37;;;;;;;2.87;0.98;;;;;;;17.54;61.74;97732.53;1658180;84;21099;-67
2021/05/25 06:05:07;;;;;;;1.62;1.30;;;;;;;17.70;61.39;97741.14;1686747;83;21114;-67
2021/05/25 06:07:34;;;;;;;1.67;0.95;;;;;;;17.78;61.34;97744.41;1681735;84;21083;-67
2021/05/25 06:10:03;;;;;;;3.98;2.30;;;;;;;17.79;61.28;97749.97;1688173;82;21086;-66
2021/05/25 06:12:30;;;;;;;1.80;0.88;;;;;;;17.86;61.24;97744.75;1673480;82;21589;-72
2021/05/25 06:14:57;;;;;;;3.00;1.05;;;;;;;17.83;61.49;97747.77;1626341;87;21082;-72
2021/05/25 06:17:24;;;;;;;3.85;0.90;;;;;;;17.78;61.60;97744.94;1671287;84;21087;-73
2021/05/25 06:19:52;;;;;;;9.03;1.75;;;;;;;17.82;61.33;97743.55;1689871;84;21039;-66
2021/05/25 06:22:21;;;;;;;4.25;2.10;;;;;;;17.90;61.61;97732.85;1689362;84;21075;-67
2021/05/25 06:24:47;;;;;;;1.35;0.93;;;;;;;17.99;61.23;97725.94;1700993;82;21071;-66
2021/05/25 06:27:16;;;;;;;2.12;1.02;;;;;;;17.99;61.01;97721.19;1701155;82;21063;-66
2021/05/25 06:29:45;;;;;;;10.32;2.52;;;;;;;18.07;60.83;97717.08;1701211;84;21058;-67
2021/05/25 06:32:13;;;;;;;1.22;0.93;;;;;;;18.15;61.10;97710.34;1657941;86;21179;-67
2021/05/25 06:34:40;;;;;;;1.98;1.12;;;;;;;18.27;60.51;97721.10;1672864;86;21173;-65
2021/05/25 06:37:07;;;;;;;4.20;1.92;;;;;;;18.17;60.75;97728.02;1673033;83;21103;-65
2021/05/25 06:39:34;;;;;;;4.65;1.47;;;;;;;18.32;60.45;97725.28;1672972;86;21063;-66
2021/05/25 06:42:01;;;;;;;8.80;2.30;;;;;;;18.34;60.32;97712.73;1642412;86;21190;-65
2021/05/25 06:44:31;;;;;;;6.00;1.90;;;;;;;18.59;60.06;97707.78;1637314;85;21147;-65
2021/05/25 06:46:59;;;;;;;3.55;1.82;;;;;;;18.78;59.44;97699.92;1644981;85;21099;-68
2021/05/25 06:49:26;;;;;;;2.75;1.65;;;;;;;18.88;58.88;97699.02;1670274;84;21681;-67
2021/05/25 06:51:53;;;;;;;2.40;1.27;;;;;;;18.98;58.35;97701.77;1678093;84;21084;-67
2021/05/25 06:54:20;;;;;;;9.83;1.65;;;;;;;19.10;57.85;97697.02;1673869;85;21099;-68
2021/05/25 06:56:47;;;;;;;2.45;1.62;;;;;;;19.22;58.33;97695.90;1664371;84;21103;-65
2021/05/25 06:59:14;;;;;;;3.67;1.90;;;;;;;19.05;59.05;97693.36;1665422;85;21087;-69
2021/05/25 07:01:41;;;;;;;3.90;1.50;;;;;;;19.06;58.88;97698.43;1666398;84;21103;-66
2021/05/25 07:04:07;;;;;;;2.95;1.50;;;;;;;19.13;58.54;97695.28;1657136;84;21103;-66
2021/05/25 07:06:34;;;;;;;3.33;1.57;;;;;;;19.02;58.99;97688.50;1673314;84;21107;-66
2021/05/25 07:09:03;;;;;;;6.22;1.32;;;;;;;19.01;58.82;97685.06;1654246;84;21121;-66
2021/05/25 07:11:30;;;;;;;3.98;1.07;;;;;;;18.87;58.63;97657.92;1650035;86;21076;-66
2021/05/25 07:13:57;;;;;;;4.22;0.98;;;;;;;19.06;59.02;97681.83;1650455;85;21107;-68
2021/05/25 07:16:24;;;;;;;4.80;1.60;;;;;;;19.09;59.13;97680.91;1650456;86;21087;-66
2021/05/25 07:18:52;;;;;;;6.70;2.37;;;;;;;19.01;59.46;97671.09;1650735;85;21107;-67
2021/05/25 07:21:19;;;;;;;8.95;4.05;;;;;;;19.15;59.10;97669.55;1650690;85;21123;-67
2021/05/25 07:23:47;;;;;;;10.95;4.37;;;;;;;19.41;58.79;97672.69;1650642;85;21134;-68
2021/05/25 07:26:13;;;;;;;5.00;1.90;;;;;;;19.70;58.01;97684.08;1650734;85;21234;-67
2021/05/25 07:28:40;;;;;;;3.70;1.40;;;;;;;19.95;57.61;97678.95;1650629;85;21186;-67
2021/05/25 07:31:07;;;;;;;6.12;1.50;;;;;;;19.97;57.20;97679.53;1650676;86;21076;-68
2021/05/25 07:33:34;;;;;;;2.60;1.20;;;;;;;19.99;57.44;97678.02;1650771;85;21094;-68
2021/05/25 07:36:02;;;;;;;3.40;1.22;;;;;;;20.16;56.84;97677.31;1651325;85;21559;-68
2021/05/25 07:38:29;;;;;;;3.87;1.10;;;;;;;20.24;56.65;97677.08;1651397;85;21083;-68
2021/05/25 07:40:56;;;;;;;1.87;0.90;;;;;;;20.48;56.53;97679.52;1650665;85;21123;-69
2021/05/25 07:43:23;;;;;;;3.50;1.15;;;;;;;20.64;55.62;97671.10;1650593;85;21091;-68
2021/05/25 07:45:50;;;;;;;2.70;1.10;;;;;;;20.89;55.11;97669.81;1652455;85;21121;-66
2021/05/25 07:48:17;;;;;;;1.37;0.90;;;;;;;21.14;54.33;97671.15;1652224;85;21078;-67
2021/05/25 07:50:45;;;;;;;1.22;1.10;;;;;;;21.33;53.95;97667.52;1652409;85;21128;-66
2021/05/25 07:53:12;;;;;;;1.00;0.88;;;;;;;21.56;53.44;97671.66;1652338;85;21172;-66
2021/05/25 07:55:39;;;;;;;2.47;0.80;;;;;;;21.79;52.65;97659.10;1652340;85;21759;-67
2021/05/25 07:58:06;;;;;;;2.22;0.82;;;;;;;21.96;52.01;97656.70;1652561;85;21271;-67
2021/05/25 08:00:34;;;;;;;0.90;0.70;;;;;;;21.97;51.98;97660.98;1652471;85;21232;-67
2021/05/25 08:03:01;;;;;;;5.85;1.60;;;;;;;22.10;51.54;97651.56;1652396;85;21225;-68
2021/05/25 08:05:28;;;;;;;1.45;1.10;;;;;;;22.22;51.68;97647.11;1652414;85;21165;-69
2021/05/25 08:07:56;;;;;;;4.15;1.07;;;;;;;22.45;50.98;97653.02;1652973;85;21203;-69
2021/05/25 08:10:23;;;;;;;3.77;1.32;;;;;;;22.61;50.56;97641.77;1653945;84;21601;-68
2021/05/25 08:12:50;;;;;;;2.95;1.50;;;;;;;22.73;50.35;97641.83;1684990;82;21049;-68
2021/05/25 08:15:19;;;;;;;1.87;1.17;;;;;;;22.91;50.19;97645.22;1658605;84;21074;-68
2021/05/25 08:20:19;;;;;;;1.32;1.00;;;;;;;23.32;49.24;97639.52;1679981;84;21672;-67
2021/05/25 08:22:49;;;;;;;4.25;2.25;;;;;;;23.57;48.75;97648.06;1679893;84;21169;-69
2021/05/25 08:25:19;;;;;;;2.22;1.12;;;;;;;23.62;49.09;97649.48;1680210;84;21171;-68
2021/05/25 08:27:47;;;;;;;1.87;1.20;;;;;;;23.71;48.27;97653.91;1679937;84;21676;-68
2021/05/25 08:30:17;;;;;;;2.52;0.95;;;;;;;23.80;48.38;97656.49;1679900;85;21153;-68
2021/05/25 08:32:44;;;;;;;2.15;1.35;;;;;;;23.83;47.78;97640.92;1679307;85;21260;-68
2021/05/25 08:35:12;;;;;;;1.02;0.72;;;;;;;23.95;47.41;97648.33;1679758;84;21119;-68
2021/05/25 08:37:40;;;;;;;4.87;1.27;;;;;;;24.00;46.99;97647.63;1680002;84;21068;-68
2021/05/25 08:40:10;;;;;;;1.77;0.93;;;;;;;24.03;47.13;97650.61;1679970;84;21081;-67
2021/05/25 08:42:38;;;;;;;4.60;1.77;;;;;;;24.25;47.40;97649.45;1679759;84;21164;-68
2021/05/25 08:45:10;;;;;;;4.58;2.30;;;;;;;24.42;47.06;97648.98;1689999;84;21087;-68
2021/05/25 08:47:38;;;;;;;2.90;0.98;;;;;;;24.46;45.99;97651.97;1697584;84;21588;-69
2021/05/25 08:50:08;;;;;;;3.72;2.05;;;;;;;24.55;46.19;97647.89;1697546;83;21628;-68
2021/05/25 08:52:36;;;;;;;2.60;1.10;;;;;;;24.67;46.38;97632.67;1697524;84;21176;-68
2021/05/25 08:55:06;;;;;;;1.90;0.90;;;;;;;24.55;46.13;97637.27;1697762;84;21072;-68
2021/05/25 08:57:32;;;;;;;2.10;1.67;;;;;;;24.86;46.48;97640.72;1697583;84;21674;-69
2021/05/25 09:00:00;;;;;;;1.80;1.25;;;;;;;24.84;45.36;97644.16;1697596;84;21141;-68
2021/05/25 09:02:27;;;;;;;2.50;1.10;;;;;;;25.16;44.64;97639.08;1697666;84;21136;-68
2021/05/25 09:05:15;;;;;;;1.17;1.02;;;;;;;25.32;44.70;97634.80;1697639;84;21057;-68
2021/05/25 09:07:55;;;;;;;1.95;1.45;;;;;;;25.21;44.85;97624.55;1697658;84;21155;-68
2021/05/25 09:10:34;;;;;;;3.40;1.30;;;;;;;25.35;44.39;97627.13;1697649;83;21017;-68
2021/05/25 09:13:03;;;;;;;6.37;1.55;;;;;;;25.40;45.07;97619.76;1697456;84;21049;-67
2021/05/25 09:15:43;;;;;;;3.30;2.17;;;;;;;25.39;44.79;97616.81;1697696;84;21683;-68
2021/05/25 09:18:21;;;;;;;1.85;1.52;;;;;;;25.46;44.50;97616.10;1697586;84;21627;-68
2021/05/25 09:20:55;;;;;;;3.25;1.70;;;;;;;25.53;44.13;97612.77;1697674;84;21088;-69
2021/05/25 09:23:36;;;;;;;2.70;1.25;;;;;;;25.78;44.34;97617.09;1697677;84;21057;-69
2021/05/25 09:26:08;;;;;;;1.40;1.15;;;;;;;26.11;43.77;97618.00;1697610;83;21143;-69
2021/05/25 09:28:40;;;;;;;3.12;1.30;;;;;;;26.41;42.91;97609.02;1697575;84;21611;-68
2021/05/25 09:31:07;;;;;;;4.12;1.77;;;;;;;26.27;43.48;97607.80;1659621;85;21067;-67
2021/05/25 09:33:34;;;;;;;2.55;1.27;;;;;;;26.22;43.31;97618.41;1670424;86;21083;-68
2021/05/25 09:36:12;;;;;;;3.58;1.15;;;;;;;26.30;43.37;97609.98;1697630;84;21113;-67
2021/05/25 09:38:40;;;;;;;1.75;1.47;;;;;;;26.52;42.95;97612.56;1697579;84;21077;-67
2021/05/25 09:41:06;;;;;;;3.70;1.20;;;;;;;26.48;43.23;97605.62;1697858;84;21703;-68
2021/05/25 09:43:34;;;;;;;4.00;1.32;;;;;;;26.93;42.69;97600.40;1697724;84;21176;-67
2021/05/25 09:46:17;;;;;;;2.33;1.27;;;;;;;26.97;42.49;97601.49;1689009;84;21101;-68
2021/05/25 09:48:48;;;;;;;1.37;1.20;;;;;;;26.89;42.12;97592.11;1685461;84;21578;-68
2021/05/25 09:51:27;;;;;;;5.45;1.07;;;;;;;27.39;42.51;97603.66;1686588;84;21158;-69
2021/05/25 09:53:56;;;;;;;0.95;0.78;;;;;;;27.77;40.52;97603.33;1686996;85;21562;-68
2021/05/25 09:56:27;;;;;;;2.30;0.90;;;;;;;27.84;39.65;97601.21;1686986;84;21089;-68
2021/05/25 09:58:57;;;;;;;0.95;0.80;;;;;;;28.59;39.04;97604.34;1686980;84;21565;-68
2021/05/25 10:01:36;;;;;;;1.67;1.20;;;;;;;28.78;38.58;97603.30;1686866;84;21613;-68
2021/05/25 10:04:12;;;;;;;2.40;1.32;;;;;;;28.90;37.98;97596.61;1653763;85;21044;-68
2021/05/25 10:06:44;;;;;;;;;;;;;;;29.13;37.98;97594.71;1637097;86;21083;-68
2021/05/25 10:09:13;;;;;;;2.92;1.00;;;;;;;29.46;39.27;97595.17;1635054;87;20191;-69
2021/05/25 10:11:45;;;;;;;1.67;0.85;;;;;;;29.89;36.66;97585.13;1653781;85;21548;-67
2021/05/25 10:14:13;;;;;;;3.52;1.10;;;;;;;29.94;35.86;97592.34;1653695;85;21106;-69
2021/05/25 10:16:43;;;;;;;2.30;0.90;;;;;;;30.51;35.15;97591.20;1653665;85;21075;-69
2021/05/25 10:21:43;;;;;;;2.08;1.00;;;;;;;30.86;34.33;97585.28;1684718;84;21151;-70
2021/05/25 10:24:10;;;;;;;2.02;0.98;;;;;;;30.99;34.05;97586.02;1684417;85;21184;-69
2021/05/25 10:26:38;;;;;;;2.92;1.32;;;;;;;31.66;33.93;97581.56;1683998;84;21716;-69
2021/05/25 10:29:06;;;;;;;3.35;1.00;;;;;;;31.33;33.33;97581.36;1684534;84;21181;-70
2021/05/25 10:31:43;;;;;;;2.35;1.32;;;;;;;31.33;33.33;97581.36;1684656;84;21043;-69
2021/05/25 10:34:24;;;;;;;3.08;1.27;;;;;;;31.82;32.85;97580.29;1653375;85;21060;-66
2021/05/25 10:36:54;;;;;;;7.58;2.00;;;;;;;31.42;33.43;97568.13;1653631;85;21610;-67
2021/05/25 10:39:42;;;;;;;2.58;0.95;;;;;;;31.72;33.35;97580.41;1635052;88;21152;-66
2021/05/25 10:42:25;;;;;;;3.37;1.30;;;;;;;32.31;31.97;97577.20;1684544;85;21210;-69
2021/05/25 10:45:13;;;;;;;4.50;1.40;;;;;;;32.86;30.92;97567.47;1686571;84;21664;-65
2021/05/25 10:48:04;;;;;;;4.92;1.50;;;;;;;32.14;32.30;97565.62;1694805;85;21611;-65
2021/05/25 10:50:37;;;;;;;2.90;1.85;;;;;;;32.32;31.93;97568.06;1694103;83;21595;-65
2021/05/25 10:53:05;;;;;;;3.20;1.60;;;;;;;32.60;32.02;97568.46;1693262;83;21029;-65
2021/05/25 10:55:42;;;;;;;4.97;2.00;;;;;;;32.42;32.07;97563.32;1694833;85;21220;-66
2021/05/25 10:58:32;;;;;;;3.52;1.85;;;;;;;32.09;33.33;97567.59;1694927;85;21103;-66
2021/05/25 11:01:08;;;;;;;5.65;1.32;;;;;;;32.67;32.46;97564.84;1694889;84;21053;-66
2021/05/25 11:03:35;;;;;;;3.00;1.10;;;;;;;33.34;31.77;97570.13;1694927;85;21057;-66
2021/05/25 11:06:05;;;;;;;3.77;1.10;;;;;;;33.82;30.95;97565.66;1694913;84;21060;-67
2021/05/25 11:08:39;;;;;;;2.05;1.22;;;;;;;33.83;30.30;97558.64;1694919;85;21203;-67
2021/05/25 11:11:18;;;;;;;1.65;1.00;;;;;;;33.80;30.02;97559.80;1695201;85;21277;-67
2021/05/25 11:13:52;;;;;;;2.62;1.22;;;;;;;34.39;30.04;97562.80;1694946;85;21112;-67
2021/05/25 11:16:30;;;;;;;4.25;2.50;;;;;;;33.67;31.69;97567.33;1694914;85;21100;-66
2021/05/25 11:19:11;;;;;;;3.55;1.65;;;;;;;34.11;29.78;97563.41;1694917;85;21669;-69
2021/05/25 11:21:59;;;;;;;2.10;1.35;;;;;;;33.65;30.58;97559.57;1666181;84;21602;-68
2021/05/25 11:24:37;;;;;;;2.95;1.62;;;;;;;33.86;29.70;97559.38;1669824;85;21055;-69
2021/05/25 11:27:14;;;;;;;3.42;1.20;;;;;;;34.16;29.38;97563.30;1666333;84;21098;-69
2021/05/25 11:29:55;;;;;;;4.47;1.37;;;;;;;32.88;31.15;97561.23;1670430;86;21095;-66
2021/05/25 11:32:28;;;;;;;1.98;1.30;;;;;;;32.18;32.50;97553.20;1697789;84;21164;-66
2021/05/25 11:34:59;;;;;;;2.27;1.22;;;;;;;32.15;32.74;97552.99;1673922;84;22408;-66
2021/05/25 11:37:32;;;;;;;4.90;1.27;;;;;;;32.13;33.02;97554.64;1697650;84;21100;-66
2021/05/25 11:39:59;;;;;;;1.30;1.20;;;;;;;32.36;32.45;97552.41;1697677;84;21537;-66
2021/05/25 11:42:30;;;;;;;4.95;1.60;;;;;;;32.63;32.38;97553.63;1697566;84;21120;-65
2021/05/25 11:44:58;;;;;;;1.60;1.00;;;;;;;32.67;32.29;97543.33;1694485;83;21064;-66
2021/05/25 11:47:26;;;;;;;2.50;1.17;;;;;;;32.58;32.14;97546.41;1668044;84;21190;-66
2021/05/25 11:49:54;;;;;;;2.77;1.20;;;;;;;32.25;32.85;97542.11;1637816;85;21687;-66
2021/05/25 11:52:32;;;;;;;2.67;1.05;;;;;;;32.25;32.85;97542.11;1633234;87;21082;-66
2021/05/25 11:55:06;;;;;;;2.98;1.10;;;;;;;32.16;33.45;97542.51;1632491;87;21094;-65
2021/05/25 11:57:44;;;;;;;4.35;1.00;;;;;;;32.16;33.45;97542.51;1665452;84;21059;-66
2021/05/25 12:00:23;;;;;;;1.47;0.90;;;;;;;31.76;34.18;97541.16;1666255;84;21075;-66
2021/05/25 12:02:53;;;;;;;5.85;1.55;;;;;;;31.93;33.60;97534.22;1637867;86;21161;-66
2021/05/25 12:05:27;;;;;;;0.90;0.82;;;;;;;31.81;33.73;97529.81;1633308;87;21082;-66
2021/05/25 12:07:59;;;;;;;2.05;0.98;;;;;;;31.73;34.01;97526.97;1632995;88;21102;-68
2021/05/25 12:10:33;;;;;;;2.92;1.10;;;;;;;31.69;34.50;97527.30;1665922;85;21155;-68